sensor_id;sensor_type;location;lat;lon;timestamp;P1;durP1;ratioP1;P2;durP2;ratioP2
28766;SDS011;15921;52.034;20.650;2023-04-04T00:01:32;11.02;;;4.78;;
28766;SDS011;15921;52.034;20.650;2023-04-04T00:03:57;11.02;;;4.93;;
28766;SDS011;15921;52.034;20.650;2023-04-04T00:06:23;13.82;;;4.53;;
28766;SDS011;15921;52.034;20.650;2023-04-04T00:08:49;12.90;;;5.40;;
28766;SDS011;15921;52.034;20.650;2023-04-04T00:11:14;10.18;;;4.53;;
28766;SDS011;15921;52.034;20.650;2023-04-04T00:13:40;15.02;;;4.85;;
28766;SDS011;15921;52.034;20.650;2023-04-04T00:16:06;8.93;;;4.82;;
28766;SDS011;15921;52.034;20.650;2023-04-04T00:18:32;11.60;;;4.82;;
28766;SDS011;15921;52.034;20.650;2023-04-04T00:20:58;11.07;;;4.82;;
28766;SDS011;15921;52.034;20.650;2023-04-04T00:23:23;10.10;;;4.15;;
28766;SDS011;15921;52.034;20.650;2023-04-04T00:25:50;12.38;;;4.85;;
28766;SDS011;15921;52.034;20.650;2023-04-04T00:28:18;12.38;;;4.80;;
28766;SDS011;15921;52.034;20.650;2023-04-04T00:30:45;15.57;;;4.68;;
28766;SDS011;15921;52.034;20.650;2023-04-04T00:33:11;13.30;;;4.15;;
28766;SDS011;15921;52.034;20.650;2023-04-04T00:35:38;12.13;;;4.32;;
28766;SDS011;15921;52.034;20.650;2023-04-04T00:38:04;11.02;;;5.15;;
28766;SDS011;15921;52.034;20.650;2023-04-04T00:40:29;11.45;;;4.25;;
28766;SDS011;15921;52.034;20.650;2023-04-04T00:42:55;15.65;;;4.13;;
28766;SDS011;15921;52.034;20.650;2023-04-04T00:45:23;12.45;;;4.50;;
28766;SDS011;15921;52.034;20.650;2023-04-04T00:47:51;11.68;;;4.13;;
28766;SDS011;15921;52.034;20.650;2023-04-04T00:50:19;8.68;;;3.92;;
28766;SDS011;15921;52.034;20.650;2023-04-04T00:52:45;8.52;;;4.43;;
28766;SDS011;15921;52.034;20.650;2023-04-04T00:55:10;10.38;;;3.75;;
28766;SDS011;15921;52.034;20.650;2023-04-04T00:57:36;8.60;;;4.20;;
28766;SDS011;15921;52.034;20.650;2023-04-04T01:00:02;9.63;;;4.30;;
28766;SDS011;15921;52.034;20.650;2023-04-04T01:02:30;12.65;;;4.60;;
28766;SDS011;15921;52.034;20.650;2023-04-04T01:04:56;12.20;;;4.22;;
28766;SDS011;15921;52.034;20.650;2023-04-04T01:07:22;8.70;;;4.30;;
28766;SDS011;15921;52.034;20.650;2023-04-04T01:09:48;8.30;;;3.55;;
28766;SDS011;15921;52.034;20.650;2023-04-04T01:12:14;10.40;;;4.47;;
28766;SDS011;15921;52.034;20.650;2023-04-04T01:14:40;14.40;;;4.32;;
28766;SDS011;15921;52.034;20.650;2023-04-04T01:17:05;8.73;;;3.75;;
28766;SDS011;15921;52.034;20.650;2023-04-04T01:19:33;8.57;;;4.43;;
28766;SDS011;15921;52.034;20.650;2023-04-04T01:22:09;9.13;;;3.55;;
28766;SDS011;15921;52.034;20.650;2023-04-04T01:24:37;11.05;;;4.40;;
28766;SDS011;15921;52.034;20.650;2023-04-04T01:27:06;9.48;;;3.90;;
28766;SDS011;15921;52.034;20.650;2023-04-04T01:29:31;9.48;;;3.88;;
28766;SDS011;15921;52.034;20.650;2023-04-04T01:32:03;9.20;;;4.05;;
28766;SDS011;15921;52.034;20.650;2023-04-04T01:34:42;13.35;;;4.63;;
28766;SDS011;15921;52.034;20.650;2023-04-04T01:37:51;9.68;;;3.85;;
28766;SDS011;15921;52.034;20.650;2023-04-04T01:40:26;11.38;;;4.50;;
28766;SDS011;15921;52.034;20.650;2023-04-04T01:42:55;17.13;;;4.70;;
28766;SDS011;15921;52.034;20.650;2023-04-04T01:45:22;12.00;;;4.63;;
28766;SDS011;15921;52.034;20.650;2023-04-04T01:47:48;12.70;;;4.00;;
28766;SDS011;15921;52.034;20.650;2023-04-04T01:50:14;9.45;;;4.57;;
28766;SDS011;15921;52.034;20.650;2023-04-04T01:52:40;15.90;;;4.05;;
28766;SDS011;15921;52.034;20.650;2023-04-04T01:55:06;17.50;;;4.70;;
28766;SDS011;15921;52.034;20.650;2023-04-04T01:57:32;14.75;;;4.15;;
28766;SDS011;15921;52.034;20.650;2023-04-04T01:59:58;10.15;;;4.30;;
28766;SDS011;15921;52.034;20.650;2023-04-04T02:02:24;16.17;;;4.85;;
28766;SDS011;15921;52.034;20.650;2023-04-04T02:04:50;15.10;;;4.82;;
28766;SDS011;15921;52.034;20.650;2023-04-04T02:07:16;9.27;;;3.90;;
28766;SDS011;15921;52.034;20.650;2023-04-04T02:09:42;16.08;;;4.88;;
28766;SDS011;15921;52.034;20.650;2023-04-04T02:12:08;10.18;;;4.10;;
28766;SDS011;15921;52.034;20.650;2023-04-04T02:14:33;11.23;;;4.63;;
28766;SDS011;15921;52.034;20.650;2023-04-04T02:17:00;8.82;;;4.50;;
28766;SDS011;15921;52.034;20.650;2023-04-04T02:19:26;11.20;;;4.80;;
28766;SDS011;15921;52.034;20.650;2023-04-04T02:21:51;13.25;;;4.53;;
28766;SDS011;15921;52.034;20.650;2023-04-04T02:24:17;14.13;;;5.00;;
28766;SDS011;15921;52.034;20.650;2023-04-04T02:26:43;10.45;;;4.35;;
28766;SDS011;15921;52.034;20.650;2023-04-04T02:29:09;14.90;;;4.72;;
28766;SDS011;15921;52.034;20.650;2023-04-04T02:31:35;11.55;;;3.78;;
28766;SDS011;15921;52.034;20.650;2023-04-04T02:34:00;10.90;;;4.70;;
28766;SDS011;15921;52.034;20.650;2023-04-04T02:36:26;17.10;;;4.85;;
28766;SDS011;15921;52.034;20.650;2023-04-04T02:38:52;9.38;;;4.20;;
28766;SDS011;15921;52.034;20.650;2023-04-04T02:41:18;10.82;;;4.25;;
28766;SDS011;15921;52.034;20.650;2023-04-04T02:43:44;9.98;;;4.07;;
28766;SDS011;15921;52.034;20.650;2023-04-04T02:46:10;9.30;;;3.85;;
28766;SDS011;15921;52.034;20.650;2023-04-04T02:48:36;11.40;;;4.78;;
28766;SDS011;15921;52.034;20.650;2023-04-04T02:51:02;9.80;;;4.30;;
28766;SDS011;15921;52.034;20.650;2023-04-04T02:53:28;14.15;;;4.78;;
28766;SDS011;15921;52.034;20.650;2023-04-04T02:55:53;10.07;;;4.45;;
28766;SDS011;15921;52.034;20.650;2023-04-04T02:58:19;8.75;;;4.18;;
28766;SDS011;15921;52.034;20.650;2023-04-04T03:00:45;12.13;;;4.45;;
28766;SDS011;15921;52.034;20.650;2023-04-04T03:03:17;11.32;;;4.30;;
28766;SDS011;15921;52.034;20.650;2023-04-04T03:05:42;10.32;;;4.43;;
28766;SDS011;15921;52.034;20.650;2023-04-04T03:08:08;11.32;;;4.72;;
28766;SDS011;15921;52.034;20.650;2023-04-04T03:10:34;20.35;;;5.13;;
28766;SDS011;15921;52.034;20.650;2023-04-04T03:13:00;11.57;;;4.05;;
28766;SDS011;15921;52.034;20.650;2023-04-04T03:15:25;11.55;;;4.25;;
28766;SDS011;15921;52.034;20.650;2023-04-04T03:17:51;21.17;;;5.00;;
28766;SDS011;15921;52.034;20.650;2023-04-04T03:20:17;16.38;;;4.75;;
28766;SDS011;15921;52.034;20.650;2023-04-04T03:22:43;14.77;;;4.68;;
28766;SDS011;15921;52.034;20.650;2023-04-04T03:25:09;14.65;;;5.55;;
28766;SDS011;15921;52.034;20.650;2023-04-04T03:27:35;17.20;;;4.85;;
28766;SDS011;15921;52.034;20.650;2023-04-04T03:30:01;9.68;;;3.70;;
28766;SDS011;15921;52.034;20.650;2023-04-04T03:32:27;13.90;;;4.72;;
28766;SDS011;15921;52.034;20.650;2023-04-04T03:34:53;12.95;;;5.65;;
28766;SDS011;15921;52.034;20.650;2023-04-04T03:37:19;9.65;;;4.40;;
28766;SDS011;15921;52.034;20.650;2023-04-04T03:39:46;11.75;;;4.90;;
28766;SDS011;15921;52.034;20.650;2023-04-04T03:42:11;11.63;;;5.13;;
28766;SDS011;15921;52.034;20.650;2023-04-04T03:44:40;16.05;;;5.50;;
28766;SDS011;15921;52.034;20.650;2023-04-04T03:47:06;16.05;;;5.55;;
28766;SDS011;15921;52.034;20.650;2023-04-04T03:49:33;14.20;;;5.45;;
28766;SDS011;15921;52.034;20.650;2023-04-04T03:51:58;14.38;;;5.30;;
28766;SDS011;15921;52.034;20.650;2023-04-04T03:54:26;18.02;;;5.93;;
28766;SDS011;15921;52.034;20.650;2023-04-04T03:56:53;18.40;;;6.47;;
28766;SDS011;15921;52.034;20.650;2023-04-04T03:59:19;18.20;;;8.23;;
28766;SDS011;15921;52.034;20.650;2023-04-04T04:01:45;39.42;;;13.07;;
28766;SDS011;15921;52.034;20.650;2023-04-04T04:04:11;75.75;;;23.92;;
28766;SDS011;15921;52.034;20.650;2023-04-04T04:06:37;58.63;;;18.58;;
28766;SDS011;15921;52.034;20.650;2023-04-04T04:09:02;78.20;;;25.70;;
28766;SDS011;15921;52.034;20.650;2023-04-04T04:11:28;45.40;;;16.58;;
28766;SDS011;15921;52.034;20.650;2023-04-04T04:13:54;39.47;;;15.70;;
28766;SDS011;15921;52.034;20.650;2023-04-04T04:16:20;34.67;;;12.90;;
28766;SDS011;15921;52.034;20.650;2023-04-04T04:18:46;18.83;;;7.45;;
28766;SDS011;15921;52.034;20.650;2023-04-04T04:21:12;13.90;;;6.00;;
28766;SDS011;15921;52.034;20.650;2023-04-04T04:23:38;22.23;;;5.78;;
28766;SDS011;15921;52.034;20.650;2023-04-04T04:26:04;17.52;;;6.13;;
28766;SDS011;15921;52.034;20.650;2023-04-04T04:28:30;16.58;;;5.90;;
28766;SDS011;15921;52.034;20.650;2023-04-04T04:31:02;14.77;;;5.47;;
28766;SDS011;15921;52.034;20.650;2023-04-04T04:33:30;16.98;;;5.63;;
28766;SDS011;15921;52.034;20.650;2023-04-04T04:36:02;13.50;;;5.25;;
28766;SDS011;15921;52.034;20.650;2023-04-04T04:38:29;19.23;;;6.20;;
28766;SDS011;15921;52.034;20.650;2023-04-04T04:40:55;12.57;;;5.85;;
28766;SDS011;15921;52.034;20.650;2023-04-04T04:43:21;15.40;;;6.25;;
28766;SDS011;15921;52.034;20.650;2023-04-04T04:45:48;19.45;;;6.70;;
28766;SDS011;15921;52.034;20.650;2023-04-04T04:48:14;16.65;;;6.32;;
28766;SDS011;15921;52.034;20.650;2023-04-04T04:50:44;17.52;;;6.20;;
28766;SDS011;15921;52.034;20.650;2023-04-04T04:53:10;25.25;;;7.57;;
28766;SDS011;15921;52.034;20.650;2023-04-04T04:55:37;22.25;;;7.75;;
28766;SDS011;15921;52.034;20.650;2023-04-04T04:58:03;21.77;;;8.98;;
28766;SDS011;15921;52.034;20.650;2023-04-04T05:00:30;19.70;;;6.88;;
28766;SDS011;15921;52.034;20.650;2023-04-04T05:02:56;32.55;;;11.85;;
28766;SDS011;15921;52.034;20.650;2023-04-04T05:05:24;101.45;;;28.25;;
28766;SDS011;15921;52.034;20.650;2023-04-04T05:07:50;29.83;;;11.07;;
28766;SDS011;15921;52.034;20.650;2023-04-04T05:10:16;18.88;;;7.70;;
28766;SDS011;15921;52.034;20.650;2023-04-04T05:12:42;23.30;;;8.20;;
28766;SDS011;15921;52.034;20.650;2023-04-04T05:15:09;17.77;;;6.72;;
28766;SDS011;15921;52.034;20.650;2023-04-04T05:17:35;19.17;;;6.07;;
28766;SDS011;15921;52.034;20.650;2023-04-04T05:20:02;18.50;;;5.88;;
28766;SDS011;15921;52.034;20.650;2023-04-04T05:22:27;18.38;;;5.90;;
28766;SDS011;15921;52.034;20.650;2023-04-04T05:24:53;16.55;;;5.43;;
28766;SDS011;15921;52.034;20.650;2023-04-04T05:27:19;20.25;;;6.47;;
28766;SDS011;15921;52.034;20.650;2023-04-04T05:29:45;13.93;;;4.85;;
28766;SDS011;15921;52.034;20.650;2023-04-04T05:32:12;17.85;;;5.80;;
28766;SDS011;15921;52.034;20.650;2023-04-04T05:34:38;16.15;;;5.43;;
28766;SDS011;15921;52.034;20.650;2023-04-04T05:37:03;13.40;;;5.35;;
28766;SDS011;15921;52.034;20.650;2023-04-04T05:39:29;14.93;;;5.00;;
28766;SDS011;15921;52.034;20.650;2023-04-04T05:41:55;14.73;;;6.63;;
28766;SDS011;15921;52.034;20.650;2023-04-04T05:44:21;11.23;;;5.00;;
28766;SDS011;15921;52.034;20.650;2023-04-04T05:46:46;14.40;;;5.20;;
28766;SDS011;15921;52.034;20.650;2023-04-04T05:49:12;14.90;;;5.03;;
28766;SDS011;15921;52.034;20.650;2023-04-04T05:51:38;16.23;;;4.60;;
28766;SDS011;15921;52.034;20.650;2023-04-04T05:54:04;17.95;;;5.00;;
28766;SDS011;15921;52.034;20.650;2023-04-04T05:56:31;12.38;;;4.90;;
28766;SDS011;15921;52.034;20.650;2023-04-04T05:58:57;12.00;;;4.90;;
28766;SDS011;15921;52.034;20.650;2023-04-04T06:01:23;13.52;;;5.45;;
28766;SDS011;15921;52.034;20.650;2023-04-04T06:03:49;13.30;;;4.50;;
28766;SDS011;15921;52.034;20.650;2023-04-04T06:06:16;16.27;;;5.35;;
28766;SDS011;15921;52.034;20.650;2023-04-04T06:08:41;11.00;;;4.85;;
28766;SDS011;15921;52.034;20.650;2023-04-04T06:11:07;12.05;;;4.55;;
28766;SDS011;15921;52.034;20.650;2023-04-04T06:13:33;12.32;;;4.97;;
28766;SDS011;15921;52.034;20.650;2023-04-04T06:15:59;8.40;;;4.43;;
28766;SDS011;15921;52.034;20.650;2023-04-04T06:18:25;9.80;;;4.43;;
28766;SDS011;15921;52.034;20.650;2023-04-04T06:20:50;18.02;;;6.90;;
28766;SDS011;15921;52.034;20.650;2023-04-04T06:23:16;11.25;;;4.80;;
28766;SDS011;15921;52.034;20.650;2023-04-04T06:25:42;14.25;;;4.63;;
28766;SDS011;15921;52.034;20.650;2023-04-04T06:28:08;16.48;;;4.57;;
28766;SDS011;15921;52.034;20.650;2023-04-04T06:30:35;14.07;;;4.70;;
28766;SDS011;15921;52.034;20.650;2023-04-04T06:33:04;11.15;;;5.20;;
28766;SDS011;15921;52.034;20.650;2023-04-04T06:35:30;14.65;;;5.57;;
28766;SDS011;15921;52.034;20.650;2023-04-04T06:37:56;11.55;;;4.93;;
28766;SDS011;15921;52.034;20.650;2023-04-04T06:40:22;11.27;;;4.28;;
28766;SDS011;15921;52.034;20.650;2023-04-04T06:42:48;13.48;;;4.65;;
28766;SDS011;15921;52.034;20.650;2023-04-04T06:45:16;14.50;;;5.00;;
28766;SDS011;15921;52.034;20.650;2023-04-04T06:47:42;13.52;;;4.40;;
28766;SDS011;15921;52.034;20.650;2023-04-04T06:50:08;15.73;;;4.70;;
28766;SDS011;15921;52.034;20.650;2023-04-04T06:52:34;10.70;;;4.50;;
28766;SDS011;15921;52.034;20.650;2023-04-04T06:55:01;11.00;;;4.55;;
28766;SDS011;15921;52.034;20.650;2023-04-04T06:57:27;12.02;;;4.65;;
28766;SDS011;15921;52.034;20.650;2023-04-04T06:59:53;13.40;;;4.13;;
28766;SDS011;15921;52.034;20.650;2023-04-04T07:02:18;12.60;;;4.47;;
28766;SDS011;15921;52.034;20.650;2023-04-04T07:04:44;9.38;;;4.20;;
28766;SDS011;15921;52.034;20.650;2023-04-04T07:07:10;12.48;;;4.35;;
28766;SDS011;15921;52.034;20.650;2023-04-04T07:09:36;12.20;;;5.03;;
28766;SDS011;15921;52.034;20.650;2023-04-04T07:12:02;14.30;;;5.00;;
28766;SDS011;15921;52.034;20.650;2023-04-04T07:14:28;14.80;;;4.57;;
28766;SDS011;15921;52.034;20.650;2023-04-04T07:16:54;10.30;;;3.67;;
28766;SDS011;15921;52.034;20.650;2023-04-04T07:19:20;15.00;;;4.50;;
28766;SDS011;15921;52.034;20.650;2023-04-04T07:21:48;10.38;;;3.78;;
28766;SDS011;15921;52.034;20.650;2023-04-04T07:24:14;14.93;;;4.38;;
28766;SDS011;15921;52.034;20.650;2023-04-04T07:26:40;14.93;;;4.32;;
28766;SDS011;15921;52.034;20.650;2023-04-04T07:29:06;10.07;;;3.50;;
28766;SDS011;15921;52.034;20.650;2023-04-04T07:31:32;10.65;;;3.95;;
28766;SDS011;15921;52.034;20.650;2023-04-04T07:33:57;9.68;;;3.80;;
28766;SDS011;15921;52.034;20.650;2023-04-04T07:36:23;17.80;;;4.57;;
28766;SDS011;15921;52.034;20.650;2023-04-04T07:38:49;12.23;;;3.78;;
28766;SDS011;15921;52.034;20.650;2023-04-04T07:41:15;13.52;;;4.20;;
28766;SDS011;15921;52.034;20.650;2023-04-04T07:43:41;11.15;;;3.78;;
28766;SDS011;15921;52.034;20.650;2023-04-04T07:46:07;11.80;;;3.40;;
28766;SDS011;15921;52.034;20.650;2023-04-04T07:48:32;12.32;;;3.70;;
28766;SDS011;15921;52.034;20.650;2023-04-04T07:51:01;9.60;;;3.15;;
28766;SDS011;15921;52.034;20.650;2023-04-04T07:53:28;11.35;;;3.75;;
28766;SDS011;15921;52.034;20.650;2023-04-04T07:55:54;9.95;;;4.10;;
28766;SDS011;15921;52.034;20.650;2023-04-04T07:58:20;8.60;;;3.83;;
28766;SDS011;15921;52.034;20.650;2023-04-04T08:00:46;10.70;;;4.25;;
28766;SDS011;15921;52.034;20.650;2023-04-04T08:03:12;11.35;;;3.25;;
28766;SDS011;15921;52.034;20.650;2023-04-04T08:05:38;7.38;;;3.10;;
28766;SDS011;15921;52.034;20.650;2023-04-04T08:08:05;9.18;;;3.75;;
28766;SDS011;15921;52.034;20.650;2023-04-04T08:10:31;8.07;;;3.78;;
28766;SDS011;15921;52.034;20.650;2023-04-04T08:12:56;9.80;;;3.50;;
28766;SDS011;15921;52.034;20.650;2023-04-04T08:15:22;11.68;;;3.42;;
28766;SDS011;15921;52.034;20.650;2023-04-04T08:17:48;8.48;;;3.67;;
28766;SDS011;15921;52.034;20.650;2023-04-04T08:20:14;7.72;;;2.80;;
28766;SDS011;15921;52.034;20.650;2023-04-04T08:22:40;7.22;;;3.40;;
28766;SDS011;15921;52.034;20.650;2023-04-04T08:25:07;10.15;;;3.88;;
28766;SDS011;15921;52.034;20.650;2023-04-04T08:27:33;11.23;;;3.10;;
28766;SDS011;15921;52.034;20.650;2023-04-04T08:29:59;11.75;;;2.70;;
28766;SDS011;15921;52.034;20.650;2023-04-04T08:32:27;10.52;;;2.95;;
28766;SDS011;15921;52.034;20.650;2023-04-04T08:34:53;5.43;;;2.13;;
28766;SDS011;15921;52.034;20.650;2023-04-04T08:37:18;6.57;;;2.67;;
28766;SDS011;15921;52.034;20.650;2023-04-04T08:39:44;8.82;;;3.05;;
28766;SDS011;15921;52.034;20.650;2023-04-04T08:42:10;9.68;;;2.75;;
28766;SDS011;15921;52.034;20.650;2023-04-04T08:44:40;14.30;;;3.78;;
28766;SDS011;15921;52.034;20.650;2023-04-04T08:47:09;10.43;;;2.38;;
28766;SDS011;15921;52.034;20.650;2023-04-04T08:49:37;6.10;;;2.50;;
28766;SDS011;15921;52.034;20.650;2023-04-04T08:52:07;14.63;;;2.75;;
28766;SDS011;15921;52.034;20.650;2023-04-04T08:54:35;7.72;;;2.80;;
28766;SDS011;15921;52.034;20.650;2023-04-04T08:57:03;6.78;;;2.80;;
28766;SDS011;15921;52.034;20.650;2023-04-04T08:59:30;3.67;;;2.40;;
28766;SDS011;15921;52.034;20.650;2023-04-04T09:02:01;8.40;;;2.42;;
28766;SDS011;15921;52.034;20.650;2023-04-04T09:04:50;7.28;;;3.13;;
28766;SDS011;15921;52.034;20.650;2023-04-04T09:07:16;5.80;;;2.78;;
28766;SDS011;15921;52.034;20.650;2023-04-04T09:09:43;7.68;;;2.38;;
28766;SDS011;15921;52.034;20.650;2023-04-04T09:12:12;8.18;;;2.42;;
28766;SDS011;15921;52.034;20.650;2023-04-04T09:14:38;7.38;;;2.63;;
28766;SDS011;15921;52.034;20.650;2023-04-04T09:17:06;10.52;;;3.25;;
28766;SDS011;15921;52.034;20.650;2023-04-04T09:19:34;9.82;;;3.00;;
28766;SDS011;15921;52.034;20.650;2023-04-04T09:22:01;7.63;;;2.60;;
28766;SDS011;15921;52.034;20.650;2023-04-04T09:24:38;10.57;;;2.72;;
28766;SDS011;15921;52.034;20.650;2023-04-04T09:27:06;7.57;;;2.42;;
28766;SDS011;15921;52.034;20.650;2023-04-04T09:29:39;6.72;;;3.20;;
28766;SDS011;15921;52.034;20.650;2023-04-04T09:32:11;10.15;;;3.50;;
28766;SDS011;15921;52.034;20.650;2023-04-04T09:34:39;9.82;;;4.30;;
28766;SDS011;15921;52.034;20.650;2023-04-04T09:37:06;8.63;;;3.20;;
28766;SDS011;15921;52.034;20.650;2023-04-04T09:39:32;10.02;;;3.50;;
28766;SDS011;15921;52.034;20.650;2023-04-04T09:41:58;8.00;;;2.90;;
28766;SDS011;15921;52.034;20.650;2023-04-04T09:44:25;11.85;;;3.50;;
28766;SDS011;15921;52.034;20.650;2023-04-04T09:47:04;7.32;;;3.00;;
28766;SDS011;15921;52.034;20.650;2023-04-04T09:49:47;7.13;;;2.58;;
28766;SDS011;15921;52.034;20.650;2023-04-04T09:52:18;6.25;;;2.45;;
28766;SDS011;15921;52.034;20.650;2023-04-04T09:54:54;5.93;;;2.53;;
28766;SDS011;15921;52.034;20.650;2023-04-04T09:57:25;6.53;;;2.65;;
28766;SDS011;15921;52.034;20.650;2023-04-04T09:59:55;11.98;;;2.47;;
28766;SDS011;15921;52.034;20.650;2023-04-04T10:02:26;6.95;;;2.60;;
28766;SDS011;15921;52.034;20.650;2023-04-04T10:04:54;5.57;;;2.72;;
28766;SDS011;15921;52.034;20.650;2023-04-04T10:07:21;6.47;;;2.28;;
28766;SDS011;15921;52.034;20.650;2023-04-04T10:09:53;6.53;;;3.03;;
28766;SDS011;15921;52.034;20.650;2023-04-04T10:12:21;6.68;;;2.83;;
28766;SDS011;15921;52.034;20.650;2023-04-04T10:14:57;6.68;;;2.92;;
28766;SDS011;15921;52.034;20.650;2023-04-04T10:17:25;4.55;;;2.15;;
28766;SDS011;15921;52.034;20.650;2023-04-04T10:20:04;7.05;;;2.30;;
28766;SDS011;15921;52.034;20.650;2023-04-04T10:22:31;8.82;;;3.53;;
28766;SDS011;15921;52.034;20.650;2023-04-04T10:24:58;5.88;;;2.72;;
28766;SDS011;15921;52.034;20.650;2023-04-04T10:27:24;4.07;;;2.60;;
28766;SDS011;15921;52.034;20.650;2023-04-04T10:29:51;11.07;;;3.35;;
28766;SDS011;15921;52.034;20.650;2023-04-04T10:32:26;6.68;;;3.90;;
28766;SDS011;15921;52.034;20.650;2023-04-04T10:35:14;6.20;;;2.60;;
28766;SDS011;15921;52.034;20.650;2023-04-04T10:37:44;8.10;;;2.60;;
28766;SDS011;15921;52.034;20.650;2023-04-04T10:40:21;6.78;;;2.50;;
28766;SDS011;15921;52.034;20.650;2023-04-04T10:42:52;5.65;;;2.38;;
28766;SDS011;15921;52.034;20.650;2023-04-04T10:45:19;8.98;;;5.60;;
28766;SDS011;15921;52.034;20.650;2023-04-04T10:47:45;5.68;;;2.22;;
28766;SDS011;15921;52.034;20.650;2023-04-04T10:50:12;6.60;;;2.40;;
28766;SDS011;15921;52.034;20.650;2023-04-04T10:52:40;7.28;;;2.70;;
28766;SDS011;15921;52.034;20.650;2023-04-04T10:55:09;6.47;;;2.40;;
28766;SDS011;15921;52.034;20.650;2023-04-04T10:57:41;11.18;;;3.53;;
28766;SDS011;15921;52.034;20.650;2023-04-04T11:00:12;6.90;;;3.42;;
28766;SDS011;15921;52.034;20.650;2023-04-04T11:08:03;7.90;;;3.17;;
28766;SDS011;15921;52.034;20.650;2023-04-04T11:10:34;5.75;;;2.80;;
28766;SDS011;15921;52.034;20.650;2023-04-04T11:13:46;9.52;;;2.72;;
28766;SDS011;15921;52.034;20.650;2023-04-04T11:15:58;8.07;;;2.83;;
28766;SDS011;15921;52.034;20.650;2023-04-04T11:21:12;9.10;;;2.60;;
28766;SDS011;15921;52.034;20.650;2023-04-04T11:28:57;6.63;;;2.70;;
28766;SDS011;15921;52.034;20.650;2023-04-04T11:34:06;7.07;;;2.72;;
28766;SDS011;15921;52.034;20.650;2023-04-04T11:44:33;7.70;;;2.80;;
28766;SDS011;15921;52.034;20.650;2023-04-04T11:49:32;6.43;;;2.97;;
28766;SDS011;15921;52.034;20.650;2023-04-04T11:52:03;9.35;;;3.00;;
28766;SDS011;15921;52.034;20.650;2023-04-04T11:54:30;5.05;;;3.00;;
28766;SDS011;15921;52.034;20.650;2023-04-04T11:56:56;11.23;;;3.08;;
28766;SDS011;15921;52.034;20.650;2023-04-04T11:59:22;7.10;;;2.50;;
28766;SDS011;15921;52.034;20.650;2023-04-04T12:01:49;7.53;;;2.88;;
28766;SDS011;15921;52.034;20.650;2023-04-04T12:04:18;7.15;;;2.72;;
28766;SDS011;15921;52.034;20.650;2023-04-04T12:07:04;5.65;;;2.22;;
28766;SDS011;15921;52.034;20.650;2023-04-04T12:09:31;7.30;;;2.55;;
28766;SDS011;15921;52.034;20.650;2023-04-04T12:11:58;11.45;;;2.50;;
28766;SDS011;15921;52.034;20.650;2023-04-04T12:14:23;4.10;;;2.10;;
28766;SDS011;15921;52.034;20.650;2023-04-04T12:16:53;6.28;;;3.13;;
28766;SDS011;15921;52.034;20.650;2023-04-04T12:19:23;7.10;;;2.55;;
28766;SDS011;15921;52.034;20.650;2023-04-04T12:21:51;7.18;;;2.10;;
28766;SDS011;15921;52.034;20.650;2023-04-04T12:24:17;3.13;;;2.05;;
28766;SDS011;15921;52.034;20.650;2023-04-04T12:26:48;8.00;;;2.33;;
28766;SDS011;15921;52.034;20.650;2023-04-04T12:29:16;7.75;;;2.47;;
28766;SDS011;15921;52.034;20.650;2023-04-04T12:31:44;4.97;;;2.20;;
28766;SDS011;15921;52.034;20.650;2023-04-04T12:34:23;8.20;;;2.60;;
28766;SDS011;15921;52.034;20.650;2023-04-04T12:36:53;4.78;;;2.78;;
28766;SDS011;15921;52.034;20.650;2023-04-04T12:39:21;7.38;;;2.35;;
28766;SDS011;15921;52.034;20.650;2023-04-04T12:41:52;5.57;;;2.28;;
28766;SDS011;15921;52.034;20.650;2023-04-04T12:44:52;7.07;;;2.45;;
28766;SDS011;15921;52.034;20.650;2023-04-04T12:47:11;6.68;;;2.22;;
28766;SDS011;15921;52.034;20.650;2023-04-04T12:49:42;9.35;;;2.35;;
28766;SDS011;15921;52.034;20.650;2023-04-04T12:52:15;6.70;;;2.50;;
28766;SDS011;15921;52.034;20.650;2023-04-04T12:54:46;6.60;;;2.28;;
28766;SDS011;15921;52.034;20.650;2023-04-04T12:57:20;3.83;;;2.10;;
28766;SDS011;15921;52.034;20.650;2023-04-04T12:59:48;5.78;;;2.38;;
28766;SDS011;15921;52.034;20.650;2023-04-04T13:02:18;5.70;;;2.17;;
28766;SDS011;15921;52.034;20.650;2023-04-04T13:04:46;8.35;;;2.70;;
28766;SDS011;15921;52.034;20.650;2023-04-04T13:07:28;9.57;;;2.45;;
28766;SDS011;15921;52.034;20.650;2023-04-04T13:10:00;6.38;;;2.60;;
28766;SDS011;15921;52.034;20.650;2023-04-04T13:16:09;7.97;;;3.40;;
28766;SDS011;15921;52.034;20.650;2023-04-04T13:18:19;7.38;;;2.85;;
28766;SDS011;15921;52.034;20.650;2023-04-04T13:20:46;18.20;;;4.55;;
28766;SDS011;15921;52.034;20.650;2023-04-04T13:23:13;4.95;;;2.50;;
28766;SDS011;15921;52.034;20.650;2023-04-04T13:25:39;10.93;;;2.85;;
28766;SDS011;15921;52.034;20.650;2023-04-04T13:28:05;6.32;;;2.65;;
28766;SDS011;15921;52.034;20.650;2023-04-04T13:30:31;5.22;;;2.80;;
28766;SDS011;15921;52.034;20.650;2023-04-04T13:32:57;7.15;;;2.83;;
28766;SDS011;15921;52.034;20.650;2023-04-04T13:35:22;5.05;;;2.60;;
28766;SDS011;15921;52.034;20.650;2023-04-04T13:37:48;12.90;;;4.00;;
28766;SDS011;15921;52.034;20.650;2023-04-04T13:40:14;8.05;;;3.03;;
28766;SDS011;15921;52.034;20.650;2023-04-04T13:42:40;4.88;;;2.40;;
28766;SDS011;15921;52.034;20.650;2023-04-04T13:45:05;5.53;;;2.45;;
28766;SDS011;15921;52.034;20.650;2023-04-04T13:47:32;5.00;;;2.42;;
28766;SDS011;15921;52.034;20.650;2023-04-04T13:49:57;9.27;;;2.88;;
28766;SDS011;15921;52.034;20.650;2023-04-04T13:52:23;6.25;;;2.63;;
28766;SDS011;15921;52.034;20.650;2023-04-04T13:54:49;7.40;;;2.80;;
28766;SDS011;15921;52.034;20.650;2023-04-04T13:57:15;7.25;;;3.05;;
28766;SDS011;15921;52.034;20.650;2023-04-04T13:59:40;10.40;;;5.60;;
28766;SDS011;15921;52.034;20.650;2023-04-04T14:02:06;7.15;;;3.65;;
28766;SDS011;15921;52.034;20.650;2023-04-04T14:04:33;12.05;;;5.45;;
28766;SDS011;15921;52.034;20.650;2023-04-04T14:06:58;8.13;;;3.42;;
28766;SDS011;15921;52.034;20.650;2023-04-04T14:09:24;10.02;;;3.30;;
28766;SDS011;15921;52.034;20.650;2023-04-04T14:11:50;9.70;;;3.30;;
28766;SDS011;15921;52.034;20.650;2023-04-04T14:14:16;12.68;;;3.60;;
28766;SDS011;15921;52.034;20.650;2023-04-04T14:16:41;6.80;;;3.10;;
28766;SDS011;15921;52.034;20.650;2023-04-04T14:19:07;7.93;;;3.55;;
28766;SDS011;15921;52.034;20.650;2023-04-04T14:21:33;7.05;;;2.90;;
28766;SDS011;15921;52.034;20.650;2023-04-04T14:23:59;13.43;;;3.67;;
28766;SDS011;15921;52.034;20.650;2023-04-04T14:26:24;6.97;;;2.90;;
28766;SDS011;15921;52.034;20.650;2023-04-04T14:28:50;7.07;;;3.35;;
28766;SDS011;15921;52.034;20.650;2023-04-04T14:31:16;11.27;;;3.20;;
28766;SDS011;15921;52.034;20.650;2023-04-04T14:33:41;6.50;;;3.05;;
28766;SDS011;15921;52.034;20.650;2023-04-04T14:36:07;8.70;;;3.30;;
28766;SDS011;15921;52.034;20.650;2023-04-04T14:38:32;6.68;;;2.78;;
28766;SDS011;15921;52.034;20.650;2023-04-04T14:40:59;8.77;;;2.88;;
28766;SDS011;15921;52.034;20.650;2023-04-04T14:43:25;7.78;;;2.92;;
28766;SDS011;15921;52.034;20.650;2023-04-04T14:45:51;8.65;;;3.10;;
28766;SDS011;15921;52.034;20.650;2023-04-04T14:48:17;8.85;;;2.88;;
28766;SDS011;15921;52.034;20.650;2023-04-04T14:50:42;5.32;;;3.13;;
28766;SDS011;15921;52.034;20.650;2023-04-04T14:53:09;7.82;;;3.00;;
28766;SDS011;15921;52.034;20.650;2023-04-04T14:55:35;5.78;;;2.90;;
28766;SDS011;15921;52.034;20.650;2023-04-04T14:58:01;8.25;;;4.05;;